createdAt,value
2023-01-13T11:32:29.278Z,101281.69
2023-01-13T11:35:07.374Z,101294.16
2023-01-13T11:37:42.078Z,101285.19
2023-01-13T11:40:20.094Z,101289.03
2023-01-13T11:42:52.108Z,101284.56
2023-01-13T11:45:24.251Z,101282.78
2023-01-13T11:47:58.287Z,101291.50
2023-01-13T11:50:33.927Z,101277.00
2023-01-13T11:53:28.485Z,101268.69
2023-01-13T11:56:13.785Z,101262.56
2023-01-13T11:59:06.890Z,101261.41
2023-01-13T12:02:07.347Z,101252.50
2023-01-13T12:04:43.776Z,101259.72
2023-01-13T12:07:19.875Z,101251.97
2023-01-13T12:10:03.756Z,101250.56
2023-01-13T12:12:45.048Z,101250.00
2023-01-13T12:15:45.281Z,101229.28
2023-01-13T12:18:27.346Z,101230.88
2023-01-13T12:21:09.065Z,101232.13
2023-01-13T12:23:41.634Z,101238.59
2023-01-13T12:26:11.700Z,101229.38
2023-01-13T12:28:46.717Z,101222.69
2023-01-13T12:31:17.044Z,101225.09
2023-01-13T12:34:09.956Z,101212.06
2023-01-13T12:36:55.154Z,101208.78
2023-01-13T12:39:30.360Z,101210.38
2023-01-13T12:42:19.135Z,101212.22
2023-01-13T12:45:07.056Z,101209.00
2023-01-13T12:47:35.973Z,101206.38
2023-01-13T12:50:36.278Z,101204.84
2023-01-13T12:53:33.213Z,101205.94
2023-01-13T12:56:29.800Z,101201.81
2023-01-13T12:59:34.707Z,101204.00
2023-01-13T13:02:31.740Z,101198.38
2023-01-13T13:05:18.766Z,101197.66
2023-01-13T13:07:49.659Z,101200.97
2023-01-13T13:10:28.315Z,101205.72
2023-01-13T13:13:19.246Z,101197.66
2023-01-13T13:15:47.912Z,101204.94
2023-01-13T13:18:25.219Z,101205.03
2023-01-13T13:21:04.057Z,101201.25
2023-01-13T13:24:03.154Z,101214.53
2023-01-13T13:26:38.027Z,101203.13
2023-01-13T13:29:24.862Z,101190.78
2023-01-13T13:32:16.103Z,101198.06
2023-01-13T13:34:51.543Z,101187.66
2023-01-13T13:37:59.776Z,101186.53
2023-01-13T13:41:01.432Z,101175.84
2023-01-13T13:43:58.384Z,101183.34
2023-01-13T13:46:47.588Z,101184.84
2023-01-13T13:49:16.308Z,101181.09
2023-01-13T13:51:48.643Z,101190.09
2023-01-13T13:54:18.584Z,101188.94
2023-01-13T13:56:47.817Z,101181.53
2023-01-13T13:59:19.380Z,101186.84
2023-01-13T14:01:53.727Z,101188.69
2023-01-13T14:04:26.452Z,101193.97
2023-01-13T14:06:56.045Z,101192.06
2023-01-13T14:09:24.944Z,101193.97
2023-01-13T14:11:57.726Z,101189.78
2023-01-13T14:14:26.200Z,101185.88
2023-01-13T14:16:55.005Z,101195.47
2023-01-13T14:19:33.180Z,101190.69
2023-01-13T14:22:02.228Z,101183.09
2023-01-13T14:24:30.321Z,101178.38
2023-01-13T14:27:16.734Z,101172.19
2023-01-13T14:29:45.554Z,101168.91
2023-01-13T14:32:15.269Z,101179.88
2023-01-13T14:34:42.298Z,101175.56
2023-01-13T14:37:25.317Z,101184.78
2023-01-13T14:39:53.886Z,101177.69
2023-01-13T14:42:22.208Z,101176.59
2023-01-13T14:44:55.202Z,101179.38
2023-01-13T14:47:27.653Z,101179.56
2023-01-13T14:50:01.107Z,101184.88
2023-01-13T14:52:32.575Z,101184.00
2023-01-13T14:55:33.812Z,101185.66
2023-01-13T14:58:24.357Z,101186.75
2023-01-13T15:01:30.284Z,101186.81
2023-01-13T15:04:16.147Z,101173.47
2023-01-13T15:06:46.829Z,101176.31
2023-01-13T15:09:14.055Z,101158.63
2023-01-13T15:11:41.026Z,101172.06
2023-01-13T15:14:11.334Z,101175.44
2023-01-13T15:16:39.571Z,101173.13
2023-01-13T15:19:09.942Z,101166.31
2023-01-13T15:21:36.804Z,101169.25
2023-01-13T15:24:05.377Z,101163.72
2023-01-13T15:26:35.720Z,101166.44
2023-01-13T15:29:05.462Z,101163.38
2023-01-13T15:31:32.812Z,101160.63
2023-01-13T15:34:01.521Z,101158.91
2023-01-13T15:36:30.696Z,101161.75
2023-01-13T15:38:59.452Z,101164.47
2023-01-13T15:41:47.901Z,101158.34
2023-01-13T15:44:35.244Z,101156.00
2023-01-13T15:47:05.807Z,101142.44
2023-01-13T15:49:37.650Z,101144.53
2023-01-13T15:52:14.547Z,101155.81
2023-01-13T15:54:43.581Z,101151.38
2023-01-13T15:57:18.777Z,101151.50
2023-01-13T15:59:46.038Z,101145.84
2023-01-13T16:02:15.962Z,101150.38
2023-01-13T16:04:59.061Z,101147.72
2023-01-13T16:07:26.154Z,101142.75
2023-01-13T16:09:53.445Z,101153.22
2023-01-13T16:12:20.420Z,101146.91
2023-01-13T16:14:47.664Z,101146.91
2023-01-13T16:17:17.296Z,101157.25
2023-01-13T16:19:49.772Z,101153.66
2023-01-13T16:22:17.506Z,101153.50
2023-01-13T16:24:44.957Z,101155.91
2023-01-13T16:27:14.849Z,101155.34
2023-01-13T16:29:42.433Z,101155.56
2023-01-13T16:32:09.355Z,101159.22
2023-01-13T16:34:36.687Z,101158.38
2023-01-13T16:37:06.649Z,101149.63
2023-01-13T16:39:33.983Z,101156.97
2023-01-13T16:42:03.521Z,101155.44
2023-01-13T16:44:30.740Z,101154.69
2023-01-13T16:46:57.754Z,101152.81
2023-01-13T16:49:24.873Z,101137.47
2023-01-13T16:51:51.788Z,101134.06
2023-01-13T16:54:23.343Z,101139.75
2023-01-13T16:56:50.188Z,101131.66
2023-01-13T16:59:17.766Z,101131.81
2023-01-13T17:01:44.968Z,101124.19
2023-01-13T17:04:16.073Z,101121.47
2023-01-13T17:06:50.778Z,101137.44
2023-01-13T17:09:21.628Z,101130.13
2023-01-13T17:11:48.830Z,101131.81
2023-01-13T17:14:19.044Z,101139.63
2023-01-13T17:16:46.762Z,101136.06
2023-01-13T17:19:14.375Z,101139.53
2023-01-13T17:21:41.445Z,101136.63
2023-01-13T17:24:09.690Z,101133.41
2023-01-13T17:26:42.089Z,101130.13
2023-01-13T17:29:13.836Z,101135.47
2023-01-13T17:31:41.947Z,101120.50
2023-01-13T17:34:11.442Z,101122.88
2023-01-13T17:36:39.005Z,101138.31
2023-01-13T17:39:07.374Z,101127.56
2023-01-13T17:41:34.404Z,101124.09
2023-01-13T17:44:02.989Z,101121.69
2023-01-13T17:46:29.888Z,101127.91
2023-01-13T17:48:57.145Z,101125.56
2023-01-13T17:51:25.174Z,101130.25
2023-01-13T17:53:53.241Z,101123.66
2023-01-13T17:56:20.548Z,101139.38
2023-01-13T17:58:47.971Z,101140.09
2023-01-13T18:01:18.164Z,101140.09
2023-01-13T18:03:46.392Z,101128.16
2023-01-13T18:06:16.685Z,101123.91
2023-01-13T18:08:44.052Z,101130.97
2023-01-13T18:11:11.022Z,101129.53
2023-01-13T18:13:41.085Z,101139.81
2023-01-13T18:16:16.113Z,101125.22
2023-01-13T18:18:46.491Z,101126.34
2023-01-13T18:21:37.038Z,101131.63
2023-01-13T18:24:25.653Z,101139.44
2023-01-13T18:27:11.275Z,101129.09
2023-01-13T18:29:41.583Z,101136.16
2023-01-13T18:32:10.582Z,101132.94
2023-01-13T18:34:45.461Z,101130.53
2023-01-13T18:37:14.618Z,101138.41
2023-01-13T18:39:41.927Z,101131.63
2023-01-13T18:42:32.439Z,101126.75
2023-01-13T18:45:05.688Z,101128.25
2023-01-13T18:47:33.592Z,101128.16
2023-01-13T18:50:02.199Z,101141.06
2023-01-13T18:52:29.177Z,101141.06
2023-01-13T18:54:59.064Z,101136.81
2023-01-13T18:57:26.017Z,101146.41
2023-01-13T18:59:53.515Z,101142.06
2023-01-13T19:02:21.519Z,101152.69
2023-01-13T19:04:49.712Z,101149.91
2023-01-13T19:07:24.440Z,101150.56
2023-01-13T19:09:55.322Z,101148.41
2023-01-13T19:12:26.332Z,101152.09
2023-01-13T19:14:54.667Z,101142.66
2023-01-13T19:17:23.005Z,101144.19
2023-01-13T19:19:55.985Z,101152.44
2023-01-13T19:22:27.343Z,101145.50
2023-01-13T19:24:55.189Z,101135.31
2023-01-13T19:27:22.774Z,101144.63
2023-01-13T19:29:52.757Z,101151.19
2023-01-13T19:32:21.985Z,101159.50
2023-01-13T19:34:51.067Z,101155.94
2023-01-13T19:37:18.826Z,101160.03
2023-01-13T19:39:47.526Z,101161.03
2023-01-13T19:42:33.391Z,101168.97
2023-01-13T19:45:19.158Z,101180.22
2023-01-13T19:47:46.317Z,101186.84
2023-01-13T19:50:16.556Z,101174.09
2023-01-13T19:52:44.050Z,101176.03
2023-01-13T19:55:12.702Z,101181.97
2023-01-13T19:57:40.328Z,101181.06
2023-01-13T20:00:10.939Z,101180.91
2023-01-13T20:02:38.839Z,101182.16
2023-01-13T20:05:08.070Z,101182.56
2023-01-13T20:07:35.347Z,101180.63
2023-01-13T20:10:03.117Z,101180.56
2023-01-13T20:12:31.375Z,101184.78
2023-01-13T20:14:58.811Z,101188.25
2023-01-13T20:17:26.858Z,101181.56
2023-01-13T20:19:54.488Z,101183.75
2023-01-13T20:22:21.397Z,101173.34
2023-01-13T20:24:54.834Z,101176.56
2023-01-13T20:27:22.665Z,101178.50
2023-01-13T20:29:51.509Z,101173.38
2023-01-13T20:32:18.419Z,101178.91
2023-01-13T20:34:45.694Z,101172.41
2023-01-13T20:37:12.653Z,101178.91
2023-01-13T20:39:45.562Z,101182.63
2023-01-13T20:42:31.989Z,101180.84
2023-01-13T20:45:05.469Z,101174.91
2023-01-13T20:47:45.019Z,101179.16
2023-01-13T20:50:12.561Z,101180.78
2023-01-13T20:52:39.641Z,101173.63
2023-01-13T20:55:10.384Z,101177.00
2023-01-13T20:57:41.020Z,101167.94
2023-01-13T21:00:12.480Z,101174.38
2023-01-13T21:02:41.251Z,101168.44
2023-01-13T21:05:09.858Z,101166.75
2023-01-13T21:07:36.958Z,101176.94
2023-01-13T21:10:04.891Z,101172.69
2023-01-13T21:12:50.538Z,101179.50
2023-01-13T21:15:21.875Z,101180.75
2023-01-13T21:18:09.305Z,101170.97
2023-01-13T21:20:38.571Z,101186.69
2023-01-13T21:23:06.471Z,101169.44
2023-01-13T21:25:35.513Z,101171.13
2023-01-13T21:28:05.682Z,101174.03
2023-01-13T21:30:34.904Z,101182.94
2023-01-13T21:33:03.959Z,101179.66
2023-01-13T21:35:31.630Z,101179.50
2023-01-13T21:37:58.824Z,101182.19
2023-01-13T21:40:26.395Z,101181.53
2023-01-13T21:43:11.935Z,101187.75
2023-01-13T21:45:59.159Z,101197.31
2023-01-13T21:48:26.186Z,101186.78
2023-01-13T21:50:53.576Z,101188.06
2023-01-13T21:53:20.799Z,101189.66
2023-01-13T21:55:51.427Z,101184.41
2023-01-13T21:58:18.583Z,101196.28
2023-01-13T22:00:49.251Z,101196.34
2023-01-13T22:03:18.363Z,101197.22
2023-01-13T22:05:46.182Z,101192.03
2023-01-13T22:08:13.655Z,101194.47
2023-01-13T22:11:09.926Z,101196.00
2023-01-13T22:13:56.716Z,101191.31
2023-01-13T22:16:27.179Z,101184.22
2023-01-13T22:19:01.323Z,101199.06
2023-01-13T22:21:28.901Z,101191.38
2023-01-13T22:23:56.545Z,101191.97
2023-01-13T22:26:28.170Z,101189.78
2023-01-13T22:28:55.369Z,101189.03
2023-01-13T22:31:24.177Z,101200.22
2023-01-13T22:33:56.144Z,101192.06
2023-01-13T22:36:26.626Z,101199.00
2023-01-13T22:38:55.309Z,101199.09
2023-01-13T22:41:23.086Z,101193.94
2023-01-13T22:43:50.382Z,101196.31
2023-01-13T22:46:17.930Z,101190.97
2023-01-13T22:48:46.071Z,101190.78
2023-01-13T22:51:26.559Z,101193.31
2023-01-13T22:53:54.501Z,101189.00
2023-01-13T22:56:23.205Z,101191.91
2023-01-13T22:58:53.428Z,101187.06
2023-01-13T23:01:20.729Z,101188.44
2023-01-13T23:03:48.202Z,101187.94
2023-01-13T23:06:25.542Z,101180.53
2023-01-13T23:08:54.079Z,101183.09
2023-01-13T23:11:26.614Z,101192.94
2023-01-13T23:13:58.578Z,101188.84
2023-01-13T23:16:27.388Z,101177.31
2023-01-13T23:18:54.465Z,101179.03
2023-01-13T23:21:26.013Z,101181.47
2023-01-13T23:23:53.420Z,101181.38
2023-01-13T23:26:23.287Z,101174.69
2023-01-13T23:28:53.109Z,101184.09
2023-01-13T23:31:22.291Z,101177.41
2023-01-13T23:33:49.362Z,101181.38
2023-01-13T23:36:18.740Z,101171.72
2023-01-13T23:38:51.739Z,101175.84
2023-01-13T23:41:22.362Z,101180.72
2023-01-13T23:43:55.721Z,101179.84
2023-01-13T23:46:26.379Z,101176.22
2023-01-13T23:48:55.090Z,101183.34
2023-01-13T23:51:22.890Z,101189.97
2023-01-13T23:53:51.522Z,101188.72
2023-01-13T23:56:30.995Z,101198.03
2023-01-13T23:58:57.957Z,101187.44
